createdAt,value
2017-08-02T00:02:02.761Z,56.27
2017-08-02T00:04:32.210Z,56.13
2017-08-02T00:07:01.673Z,56.29
2017-08-02T00:09:31.090Z,56.54
2017-08-02T00:12:00.528Z,55.58
2017-08-02T00:14:30.008Z,56.22
2017-08-02T00:16:59.448Z,57.47
2017-08-02T00:19:28.897Z,57.76
2017-08-02T00:21:58.341Z,58.37
2017-08-02T00:24:27.798Z,58.82
2017-08-02T00:26:57.272Z,59.35
2017-08-02T00:29:26.729Z,60.45
2017-08-02T00:31:56.183Z,60.97
2017-08-02T00:34:25.629Z,61.47
2017-08-02T00:36:55.080Z,61.95
2017-08-02T00:39:24.535Z,62.52
2017-08-02T00:41:54.013Z,63.05
2017-08-02T00:44:23.472Z,63.80
2017-08-02T00:46:52.961Z,64.25
2017-08-02T00:49:22.409Z,65.19
2017-08-02T00:51:51.837Z,65.38
2017-08-02T00:54:21.290Z,65.40
2017-08-02T00:56:50.729Z,65.95
2017-08-02T00:59:20.186Z,66.27
2017-08-02T01:01:49.629Z,66.90
2017-08-02T01:04:19.101Z,67.55
2017-08-02T01:06:48.539Z,68.05
2017-08-02T01:09:17.984Z,68.64
2017-08-02T01:11:47.437Z,69.22
2017-08-02T01:14:16.951Z,69.53
2017-08-02T01:16:46.431Z,69.94
2017-08-02T01:19:15.866Z,70.19
2017-08-02T01:21:45.329Z,70.50
2017-08-02T01:24:14.804Z,70.76
2017-08-02T01:26:44.258Z,71.10
2017-08-02T01:29:13.712Z,71.43
2017-08-02T01:31:43.164Z,71.82
2017-08-02T01:34:12.616Z,72.37
2017-08-02T01:36:42.087Z,72.56
2017-08-02T01:39:11.523Z,72.65
2017-08-02T01:41:40.975Z,72.53
2017-08-02T01:44:10.454Z,72.51
2017-08-02T01:46:39.881Z,72.63
2017-08-02T01:49:09.336Z,72.92
2017-08-02T01:51:38.801Z,72.79
2017-08-02T01:54:08.280Z,73.13
2017-08-02T01:56:37.734Z,73.24
2017-08-02T01:59:07.182Z,73.74
2017-08-02T02:01:36.625Z,74.02
2017-08-02T02:04:06.088Z,74.42
2017-08-02T02:06:35.541Z,74.79
2017-08-02T02:09:04.399Z,74.83
2017-08-02T02:11:33.829Z,75.09
2017-08-02T02:14:03.275Z,75.15
2017-08-02T02:16:32.733Z,75.59
2017-08-02T02:19:03.164Z,76.10
2017-08-02T02:21:32.624Z,76.16
2017-08-02T02:24:02.063Z,76.20
2017-08-02T02:26:31.521Z,76.35
2017-08-02T02:29:00.962Z,75.66
2017-08-02T02:31:30.410Z,75.99
2017-08-02T02:33:59.865Z,75.92
2017-08-02T02:36:29.392Z,75.93
2017-08-02T02:38:58.833Z,75.96
2017-08-02T02:41:28.277Z,76.12
2017-08-02T02:43:57.725Z,76.22
2017-08-02T02:46:27.170Z,76.44
2017-08-02T02:48:56.612Z,77.01
2017-08-02T02:51:26.053Z,77.27
2017-08-02T02:53:55.509Z,77.40
2017-08-02T02:56:24.945Z,77.65
2017-08-02T02:58:54.396Z,77.92
2017-08-02T03:01:23.841Z,77.83
2017-08-02T03:03:53.324Z,77.90
2017-08-02T03:06:22.762Z,78.01
2017-08-02T03:08:52.216Z,78.27
2017-08-02T03:11:21.657Z,78.44
2017-08-02T03:13:51.107Z,78.36
2017-08-02T03:16:20.554Z,78.53
2017-08-02T03:18:50.000Z,78.59
2017-08-02T03:21:19.440Z,78.88
2017-08-02T03:23:48.881Z,79.08
2017-08-02T03:26:18.346Z,79.02
2017-08-02T03:28:47.806Z,78.69
2017-08-02T03:31:17.260Z,78.43
2017-08-02T03:33:46.734Z,78.62
2017-08-02T03:36:16.176Z,78.88
2017-08-02T03:38:45.635Z,79.15
2017-08-02T03:41:15.083Z,79.26
2017-08-02T03:43:44.526Z,79.32
2017-08-02T03:46:13.980Z,79.11
2017-08-02T03:48:43.412Z,79.24
2017-08-02T03:51:12.876Z,78.71
2017-08-02T03:53:42.330Z,79.21
2017-08-02T03:56:11.937Z,79.20
2017-08-02T03:58:41.403Z,79.10
2017-08-02T04:01:10.855Z,79.22
2017-08-02T04:03:40.308Z,79.53
2017-08-02T04:06:09.755Z,79.92
2017-08-02T04:08:39.208Z,80.76
2017-08-02T04:11:08.653Z,81.09
2017-08-02T04:13:38.188Z,81.20
2017-08-02T04:16:07.624Z,81.10
2017-08-02T04:18:37.083Z,81.13
2017-08-02T04:21:06.550Z,81.25
2017-08-02T04:23:35.990Z,81.07
2017-08-02T04:26:05.451Z,80.65
2017-08-02T04:28:34.912Z,80.58
2017-08-02T04:31:04.404Z,80.53
2017-08-02T04:33:33.889Z,80.38
2017-08-02T04:36:03.334Z,80.01
2017-08-02T04:38:32.607Z,79.15
2017-08-02T04:41:02.072Z,79.06
2017-08-02T04:43:31.515Z,78.36
2017-08-02T04:46:00.959Z,77.98
2017-08-02T04:48:30.429Z,78.29
2017-08-02T04:50:59.892Z,77.68
2017-08-02T04:53:29.344Z,77.50
2017-08-02T04:55:58.795Z,77.71
2017-08-02T04:58:28.241Z,77.96
2017-08-02T05:00:57.739Z,78.36
2017-08-02T05:03:27.165Z,78.31
2017-08-02T05:05:56.627Z,78.32
2017-08-02T05:08:26.071Z,78.48
2017-08-02T05:10:55.532Z,78.78
2017-08-02T05:13:25.649Z,78.45
2017-08-02T05:15:55.151Z,78.32
2017-08-02T05:18:24.421Z,77.51
2017-08-02T05:20:54.753Z,76.97
2017-08-02T05:23:24.217Z,76.44
2017-08-02T05:25:53.658Z,76.39
2017-08-02T05:28:23.097Z,76.01
2017-08-02T05:30:52.548Z,76.49
2017-08-02T05:33:22.205Z,76.47
2017-08-02T05:35:51.645Z,74.87
2017-08-02T05:42:10.660Z,73.16
2017-08-02T05:44:40.104Z,72.56
2017-08-02T05:47:09.602Z,71.38
2017-08-02T05:49:39.264Z,69.62
2017-08-02T05:52:08.716Z,68.92
2017-08-02T05:54:37.816Z,68.41
2017-08-02T05:57:07.481Z,68.38
2017-08-02T05:59:37.028Z,67.82
2017-08-02T06:02:06.454Z,67.44
2017-08-02T06:04:36.094Z,65.94
2017-08-02T06:07:05.550Z,65.11
2017-08-02T06:09:34.989Z,63.71
2017-08-02T06:12:04.617Z,63.77
2017-08-02T06:14:34.060Z,64.02
2017-08-02T06:17:03.312Z,64.08
2017-08-02T06:19:33.016Z,64.74
2017-08-02T06:22:02.297Z,65.33
2017-08-02T06:24:31.569Z,65.59
2017-08-02T06:27:01.236Z,64.08
2017-08-02T06:29:30.787Z,65.25
2017-08-02T06:32:00.245Z,65.74
2017-08-02T06:34:29.953Z,65.94
2017-08-02T06:36:59.393Z,66.90
2017-08-02T06:39:28.845Z,66.98
2017-08-02T06:41:58.456Z,67.30
2017-08-02T06:44:27.901Z,67.55
2017-08-02T06:46:57.336Z,67.56
2017-08-02T06:49:26.981Z,67.63
2017-08-02T06:51:56.452Z,68.44
2017-08-02T06:54:25.905Z,69.13
2017-08-02T06:56:55.600Z,69.15
2017-08-02T06:59:26.822Z,68.89
2017-08-02T07:01:56.332Z,69.01
2017-08-02T07:04:25.772Z,68.71
2017-08-02T07:06:55.227Z,67.84
2017-08-02T07:09:24.872Z,66.20
2017-08-02T07:11:54.330Z,66.08
2017-08-02T07:14:23.766Z,64.81
2017-08-02T07:16:53.234Z,64.32
2017-08-02T07:19:22.672Z,64.06
2017-08-02T07:21:52.125Z,63.04
2017-08-02T07:24:21.612Z,63.40
2017-08-02T07:26:51.032Z,62.80
2017-08-02T07:29:20.524Z,62.38
2017-08-02T07:31:49.974Z,61.53
2017-08-02T07:34:19.425Z,62.17
2017-08-02T07:36:48.696Z,62.24
2017-08-02T07:39:18.148Z,62.17
2017-08-02T07:41:47.613Z,61.91
2017-08-02T07:44:17.053Z,62.22
2017-08-02T07:46:46.492Z,61.25
2017-08-02T07:49:15.929Z,61.62
2017-08-02T07:51:45.392Z,61.85
2017-08-02T07:54:14.846Z,62.06
2017-08-02T07:56:44.284Z,62.02
2017-08-02T07:59:13.733Z,60.60
2017-08-02T08:01:43.183Z,61.76
2017-08-02T08:04:12.649Z,61.17
2017-08-02T08:06:42.078Z,57.76
2017-08-02T08:09:11.526Z,58.43
2017-08-02T08:11:40.964Z,58.52
2017-08-02T08:14:10.416Z,57.35
2017-08-02T08:16:39.861Z,57.06
2017-08-02T08:19:09.317Z,56.37
2017-08-02T08:21:38.761Z,55.88
2017-08-02T08:24:08.202Z,55.38
2017-08-02T08:26:37.681Z,53.92
2017-08-02T08:29:07.124Z,53.94
2017-08-02T08:31:36.576Z,55.48
2017-08-02T08:34:06.062Z,52.82
2017-08-02T08:36:35.492Z,53.13
2017-08-02T08:39:04.145Z,52.91
2017-08-02T08:41:33.596Z,52.56
2017-08-02T08:44:03.198Z,52.24
2017-08-02T08:46:32.661Z,52.39
2017-08-02T08:49:02.108Z,52.76
2017-08-02T08:51:31.552Z,51.58
2017-08-02T08:54:01.008Z,51.40
2017-08-02T08:56:30.444Z,51.84
2017-08-02T08:58:59.901Z,52.04
2017-08-02T09:01:29.352Z,52.21
2017-08-02T09:03:58.801Z,51.53
2017-08-02T09:06:28.243Z,50.60
2017-08-02T09:08:57.693Z,50.71
2017-08-02T09:11:27.136Z,50.28
2017-08-02T09:13:56.574Z,49.54
2017-08-02T09:16:26.023Z,48.99
2017-08-02T09:18:55.453Z,49.23
2017-08-02T09:21:24.888Z,47.71
2017-08-02T09:23:54.340Z,47.51
2017-08-02T09:26:23.789Z,48.47
2017-08-02T09:28:53.241Z,48.56
2017-08-02T09:31:22.711Z,47.90
2017-08-02T09:33:52.145Z,49.35
2017-08-02T09:36:21.578Z,47.70
2017-08-02T09:38:51.029Z,46.68
2017-08-02T09:41:20.460Z,45.55
2017-08-02T09:43:49.908Z,45.60
2017-08-02T09:46:20.168Z,45.98
2017-08-02T09:48:49.613Z,46.23
2017-08-02T09:51:19.073Z,45.75
2017-08-02T09:53:48.597Z,45.23
2017-08-02T09:56:18.022Z,45.28
2017-08-02T09:58:47.456Z,45.30
2017-08-02T10:01:16.896Z,45.42
2017-08-02T10:03:46.336Z,44.94
2017-08-02T10:06:15.780Z,45.47
2017-08-02T10:08:45.239Z,44.02
2017-08-02T10:11:14.676Z,43.54
2017-08-02T10:13:44.115Z,43.29
2017-08-02T10:16:13.569Z,44.26
2017-08-02T10:18:43.040Z,44.88
2017-08-02T10:21:13.481Z,43.37
2017-08-02T10:23:42.984Z,44.65
2017-08-02T10:26:13.429Z,43.17
2017-08-02T10:28:42.861Z,43.57
2017-08-02T10:31:12.348Z,44.34
2017-08-02T10:33:41.832Z,42.86
2017-08-02T10:36:11.283Z,42.29
2017-08-02T10:38:40.719Z,42.26
2017-08-02T10:41:11.009Z,42.40
2017-08-02T10:43:40.457Z,43.75
2017-08-02T10:46:09.935Z,42.81
2017-08-02T10:48:39.382Z,41.79
2017-08-02T10:51:08.820Z,40.38
2017-08-02T10:53:38.268Z,40.98
2017-08-02T10:56:07.704Z,41.19
2017-08-02T10:58:37.141Z,40.15
2017-08-02T11:01:06.596Z,40.57
2017-08-02T11:03:36.052Z,41.83
2017-08-02T11:06:05.496Z,37.93
2017-08-02T11:08:34.961Z,38.14
2017-08-02T11:11:04.391Z,37.84
2017-08-02T11:13:33.834Z,37.99
2017-08-02T11:16:03.269Z,39.46
2017-08-02T11:18:32.721Z,37.48
2017-08-02T11:21:02.191Z,37.82
2017-08-02T11:23:31.654Z,37.78
2017-08-02T11:26:01.272Z,38.57
2017-08-02T11:28:30.736Z,37.16
2017-08-02T11:31:01.121Z,38.57
2017-08-02T11:33:30.584Z,38.18
2017-08-02T11:36:00.049Z,39.05
2017-08-02T11:38:29.484Z,38.10
2017-08-02T11:40:58.940Z,37.88
2017-08-02T11:43:28.376Z,37.02
2017-08-02T11:45:57.852Z,36.53
2017-08-02T11:48:27.282Z,36.55
2017-08-02T11:50:57.611Z,36.14
2017-08-02T11:53:27.117Z,34.67
2017-08-02T11:55:56.549Z,33.46
2017-08-02T11:58:26.004Z,34.90
2017-08-02T12:00:55.441Z,34.20
2017-08-02T12:03:24.896Z,34.49
2017-08-02T12:05:54.349Z,33.57
2017-08-02T12:08:23.842Z,35.49
2017-08-02T12:10:53.253Z,34.12
2017-08-02T12:13:22.647Z,32.66
2017-08-02T12:15:52.097Z,33.73
2017-08-02T12:18:21.382Z,33.23
2017-08-02T12:20:50.828Z,33.88
2017-08-02T12:23:20.283Z,33.85
2017-08-02T12:25:49.718Z,31.21
2017-08-02T12:28:19.185Z,31.34
2017-08-02T12:30:48.621Z,29.40
2017-08-02T12:33:18.084Z,28.91
2017-08-02T12:35:47.517Z,27.99
2017-08-02T12:38:16.982Z,26.52
2017-08-02T12:40:46.429Z,26.48
2017-08-02T12:43:15.896Z,24.48
2017-08-02T12:45:45.330Z,22.51
2017-08-02T12:48:14.802Z,23.45
2017-08-02T12:50:44.228Z,23.88
2017-08-02T12:53:13.671Z,22.21
2017-08-02T12:55:43.141Z,22.49
2017-08-02T12:58:12.609Z,22.59
2017-08-02T13:00:42.082Z,22.08
2017-08-02T13:03:11.530Z,20.46
2017-08-02T13:05:41.002Z,20.74
2017-08-02T13:08:10.449Z,22.64
2017-08-02T13:10:39.915Z,20.46
2017-08-02T13:13:10.059Z,19.79
2017-08-02T13:15:39.488Z,19.58
2017-08-02T13:18:08.985Z,19.41
2017-08-02T13:20:38.424Z,19.76
2017-08-02T13:23:07.869Z,20.88
2017-08-02T13:25:37.304Z,20.24
2017-08-02T13:28:06.780Z,20.31
2017-08-02T13:30:36.276Z,19.90
2017-08-02T13:33:05.744Z,20.12
2017-08-02T13:35:35.204Z,20.15
2017-08-02T13:38:04.746Z,20.51
2017-08-02T13:40:34.190Z,21.47
2017-08-02T13:43:03.644Z,23.57
2017-08-02T13:45:33.095Z,26.09
2017-08-02T13:48:02.347Z,25.28
2017-08-02T13:50:31.799Z,27.59
2017-08-02T13:53:01.241Z,27.93
2017-08-02T13:55:30.702Z,29.58
2017-08-02T13:58:00.159Z,31.22
2017-08-02T14:00:29.612Z,32.87
2017-08-02T14:02:59.712Z,31.16
2017-08-02T14:05:29.671Z,32.27
2017-08-02T14:07:59.857Z,32.05
2017-08-02T14:10:29.868Z,32.23
2017-08-02T14:12:59.750Z,32.18
2017-08-02T14:15:29.387Z,30.37
2017-08-02T14:17:58.954Z,27.66
2017-08-02T14:20:28.488Z,26.82
2017-08-02T14:22:58.268Z,24.63
2017-08-02T14:25:27.777Z,22.56
2017-08-02T14:27:57.582Z,22.09
2017-08-02T14:30:27.016Z,20.71
2017-08-02T14:32:56.459Z,21.33
2017-08-02T14:35:25.948Z,19.45
2017-08-02T14:37:55.409Z,19.24
2017-08-02T14:40:24.840Z,19.45
2017-08-02T14:42:54.282Z,18.81
2017-08-02T14:45:23.841Z,19.47
2017-08-02T14:47:53.302Z,19.32
2017-08-02T14:50:22.767Z,19.58
2017-08-02T14:52:52.218Z,18.79
2017-08-02T14:55:21.713Z,18.44
2017-08-02T14:57:51.145Z,18.62
2017-08-02T15:00:20.646Z,18.56
2017-08-02T15:02:50.073Z,20.03
2017-08-02T15:05:19.578Z,17.95
2017-08-02T15:07:49.016Z,17.73
2017-08-02T15:10:18.503Z,18.97
2017-08-02T15:12:47.936Z,17.08
2017-08-02T15:15:17.425Z,17.78
2017-08-02T15:17:46.857Z,18.42
2017-08-02T15:20:16.347Z,18.41
2017-08-02T15:22:45.819Z,19.37
2017-08-02T15:25:15.303Z,19.33
2017-08-02T15:27:44.764Z,21.37
2017-08-02T15:30:14.265Z,19.54
2017-08-02T15:32:43.711Z,19.25
2017-08-02T15:35:13.199Z,20.51
2017-08-02T15:37:42.654Z,20.33
2017-08-02T15:40:12.172Z,20.26
2017-08-02T15:42:41.596Z,20.26
2017-08-02T15:45:11.136Z,21.46
2017-08-02T15:47:40.571Z,20.58
2017-08-02T15:50:10.052Z,21.45
2017-08-02T15:52:39.478Z,21.21
2017-08-02T15:55:09.047Z,20.67
2017-08-02T15:57:38.553Z,22.50
2017-08-02T16:00:08.046Z,24.42
2017-08-02T16:02:37.499Z,23.87
2017-08-02T16:05:06.966Z,23.04
2017-08-02T16:07:36.413Z,22.80
2017-08-02T16:10:05.891Z,22.18
2017-08-02T16:12:35.331Z,22.30
2017-08-02T16:15:04.539Z,22.04
2017-08-02T16:17:33.994Z,22.07
2017-08-02T16:20:03.498Z,21.55
2017-08-02T16:22:32.935Z,22.60
2017-08-02T16:25:02.409Z,21.62
2017-08-02T16:27:31.846Z,22.10
2017-08-02T16:30:01.345Z,22.40
2017-08-02T16:32:30.788Z,22.78
2017-08-02T16:35:00.237Z,21.93
2017-08-02T16:37:29.694Z,22.69
2017-08-02T16:39:59.139Z,22.74
2017-08-02T16:42:28.583Z,22.45
2017-08-02T16:44:58.065Z,22.82
2017-08-02T16:47:27.509Z,23.50
2017-08-02T16:49:57.098Z,23.62
2017-08-02T16:52:26.571Z,23.15
2017-08-02T16:54:56.075Z,22.62
2017-08-02T16:57:25.558Z,23.52
2017-08-02T16:59:55.016Z,23.47
2017-08-02T17:02:24.482Z,23.39
2017-08-02T17:04:53.912Z,23.94
2017-08-02T17:07:23.365Z,25.09
2017-08-02T17:09:52.808Z,25.16
2017-08-02T17:12:22.284Z,26.35
2017-08-02T17:14:51.745Z,24.96
2017-08-02T17:17:21.258Z,25.16
2017-08-02T17:19:50.718Z,24.41
2017-08-02T17:22:20.185Z,26.87
2017-08-02T17:24:49.620Z,27.29
2017-08-02T17:27:19.080Z,28.58
2017-08-02T17:29:48.721Z,28.47
2017-08-02T17:32:18.141Z,27.64
2017-08-02T17:34:47.612Z,27.25
2017-08-02T17:37:17.088Z,28.75
2017-08-02T17:39:46.512Z,30.67
2017-08-02T17:42:15.963Z,32.46
2017-08-02T17:44:45.408Z,33.74
2017-08-02T17:47:14.877Z,34.60
2017-08-02T17:49:44.378Z,36.51
2017-08-02T17:52:13.792Z,36.79
2017-08-02T17:54:43.228Z,38.08
2017-08-02T17:57:12.676Z,39.53
2017-08-02T17:59:42.161Z,42.04
2017-08-02T18:02:11.613Z,44.86
2017-08-02T18:04:41.182Z,46.77
2017-08-02T18:07:10.619Z,47.85
2017-08-02T18:09:40.052Z,48.15
2017-08-02T18:12:09.506Z,48.50
2017-08-02T18:14:38.965Z,49.18
2017-08-02T18:17:08.450Z,50.50
2017-08-02T18:19:37.908Z,51.89
2017-08-02T18:22:07.371Z,53.36
2017-08-02T18:24:37.510Z,54.25
2017-08-02T18:27:06.963Z,54.78
2017-08-02T18:29:36.402Z,55.27
2017-08-02T18:32:05.875Z,56.04
2017-08-02T18:34:35.325Z,56.71
2017-08-02T18:37:04.497Z,57.65
2017-08-02T18:39:33.890Z,58.19
2017-08-02T18:42:03.325Z,57.25
2017-08-02T18:44:32.764Z,58.40
2017-08-02T18:47:02.213Z,59.81
2017-08-02T18:49:31.678Z,59.22
2017-08-02T18:52:01.128Z,60.01
2017-08-02T18:54:30.594Z,61.11
2017-08-02T18:57:00.131Z,62.14
2017-08-02T18:59:29.565Z,62.13
2017-08-02T19:01:59.012Z,63.80
2017-08-02T19:04:28.531Z,64.26
2017-08-02T19:06:57.952Z,63.53
2017-08-02T19:09:27.406Z,62.28
2017-08-02T19:11:56.869Z,63.27
2017-08-02T19:14:26.307Z,64.22
2017-08-02T19:16:55.760Z,64.15
2017-08-02T19:19:25.218Z,64.71
2017-08-02T19:21:54.647Z,64.92
2017-08-02T19:24:24.101Z,65.60
2017-08-02T19:26:53.565Z,65.98
2017-08-02T19:29:23.008Z,66.05
2017-08-02T19:31:52.447Z,66.22
2017-08-02T19:34:21.904Z,66.26
2017-08-02T19:36:51.353Z,66.49
2017-08-02T19:39:20.849Z,66.62
2017-08-02T19:41:50.277Z,66.72
2017-08-02T19:44:19.720Z,67.96
2017-08-02T19:46:49.220Z,69.13
2017-08-02T19:49:18.686Z,69.25
2017-08-02T19:51:48.112Z,69.48
2017-08-02T19:54:17.566Z,69.18
2017-08-02T19:56:47.008Z,69.32
2017-08-02T19:59:16.464Z,69.50
2017-08-02T20:01:45.932Z,69.80
2017-08-02T20:04:15.412Z,70.45
2017-08-02T20:06:44.881Z,71.28
2017-08-02T20:09:14.315Z,71.71
2017-08-02T20:11:43.762Z,71.99
2017-08-02T20:14:13.234Z,71.71
2017-08-02T20:16:42.517Z,71.89
2017-08-02T20:19:11.960Z,72.23
2017-08-02T20:21:41.417Z,72.33
2017-08-02T20:24:10.875Z,72.65
2017-08-02T20:26:40.327Z,72.89
2017-08-02T20:29:09.761Z,73.01
2017-08-02T20:31:39.212Z,73.19
2017-08-02T20:34:08.686Z,73.74
2017-08-02T20:36:38.109Z,73.84
2017-08-02T20:39:07.557Z,74.32
2017-08-02T20:41:37.000Z,74.55
2017-08-02T20:44:06.447Z,74.50
2017-08-02T20:46:35.888Z,75.20
2017-08-02T20:49:05.338Z,75.47
2017-08-02T20:51:34.781Z,75.69
2017-08-02T20:54:04.250Z,76.03
2017-08-02T20:56:33.688Z,76.24
2017-08-02T20:59:03.132Z,76.50
2017-08-02T21:01:32.222Z,76.60
2017-08-02T21:04:01.524Z,76.56
2017-08-02T21:06:30.982Z,76.94
2017-08-02T21:09:00.432Z,77.15
2017-08-02T21:11:29.893Z,77.62
2017-08-02T21:13:59.409Z,77.72
2017-08-02T21:16:28.877Z,77.70
2017-08-02T21:18:58.351Z,77.75
2017-08-02T21:21:27.789Z,77.87
2017-08-02T21:23:57.224Z,78.19
2017-08-02T21:26:26.704Z,78.67
2017-08-02T21:28:56.149Z,79.06
2017-08-02T21:31:25.608Z,79.07
2017-08-02T21:33:55.067Z,79.49
2017-08-02T21:36:24.527Z,79.57
2017-08-02T21:38:53.977Z,80.08
2017-08-02T21:41:23.432Z,79.95
2017-08-02T21:43:52.885Z,79.86
2017-08-02T21:46:22.339Z,79.76
2017-08-02T21:48:51.801Z,80.30
2017-08-02T21:51:21.254Z,80.62
2017-08-02T21:53:51.616Z,80.75
2017-08-02T21:56:21.067Z,80.82
2017-08-02T21:58:50.510Z,81.02
2017-08-02T22:01:31.150Z,80.94
2017-08-02T22:04:00.404Z,80.96
2017-08-02T22:06:29.849Z,80.83
2017-08-02T22:08:59.294Z,80.43
2017-08-02T22:11:28.875Z,80.92
2017-08-02T22:13:58.304Z,81.24
2017-08-02T22:16:27.785Z,81.68
2017-08-02T22:18:57.332Z,81.66
2017-08-02T22:21:26.779Z,81.66
2017-08-02T22:23:56.231Z,81.61
2017-08-02T22:26:25.872Z,81.84
2017-08-02T22:28:55.723Z,82.00
2017-08-02T22:31:25.424Z,82.00
2017-08-02T22:33:55.362Z,82.07
2017-08-02T22:36:25.480Z,82.76
2017-08-02T22:38:55.403Z,82.48
2017-08-02T22:41:25.585Z,82.25
2017-08-02T22:43:55.457Z,82.21
2017-08-02T22:46:25.285Z,82.33
2017-08-02T22:48:55.039Z,82.01
2017-08-02T22:51:24.887Z,82.09
2017-08-02T22:53:54.770Z,82.11
2017-08-02T22:56:24.538Z,82.73
2017-08-02T22:58:54.907Z,83.07
2017-08-02T23:01:24.576Z,83.17
2017-08-02T23:03:54.220Z,82.96
2017-08-02T23:06:23.754Z,82.65
2017-08-02T23:08:53.645Z,82.43
2017-08-02T23:11:23.154Z,82.22
2017-08-02T23:13:52.725Z,82.07
2017-08-02T23:16:22.282Z,82.06
2017-08-02T23:18:51.829Z,82.23
2017-08-02T23:21:21.789Z,82.90
2017-08-02T23:23:51.429Z,83.09
2017-08-02T23:26:21.106Z,82.92
2017-08-02T23:28:50.592Z,82.76
2017-08-02T23:31:20.709Z,82.88
2017-08-02T23:33:50.906Z,82.75
2017-08-02T23:36:20.676Z,82.76
2017-08-02T23:38:50.378Z,82.68
2017-08-02T23:41:20.837Z,82.89
2017-08-02T23:43:50.782Z,83.24
2017-08-02T23:46:20.941Z,83.18
2017-08-02T23:48:50.624Z,83.37
2017-08-02T23:51:20.935Z,83.44
2017-08-02T23:53:50.698Z,83.44
2017-08-02T23:56:20.445Z,83.31
2017-08-02T23:58:49.909Z,83.31
